createdAt,value
2022-08-24T00:00:32.594Z,18.05
2022-08-24T00:02:59.354Z,18.01
2022-08-24T00:05:26.128Z,18.22
2022-08-24T00:07:53.136Z,18.07
2022-08-24T00:10:20.386Z,17.85
2022-08-24T00:12:47.783Z,17.74
2022-08-24T00:15:14.954Z,17.88
2022-08-24T00:17:41.860Z,17.85
2022-08-24T00:20:10.823Z,17.68
2022-08-24T00:22:38.729Z,17.45
2022-08-24T00:25:05.823Z,17.52
2022-08-24T00:27:32.937Z,17.51
2022-08-24T00:29:59.565Z,17.42
2022-08-24T00:32:26.254Z,17.64
2022-08-24T00:34:58.434Z,17.59
2022-08-24T00:37:27.456Z,17.51
2022-08-24T00:39:54.190Z,17.88
2022-08-24T00:42:20.846Z,18.05
2022-08-24T00:44:47.483Z,18.09
2022-08-24T00:47:24.509Z,18.11
2022-08-24T00:50:04.774Z,18.13
2022-08-24T00:52:44.182Z,17.99
2022-08-24T00:55:15.569Z,17.94
2022-08-24T00:57:47.153Z,17.87
2022-08-24T01:00:20.388Z,17.91
2022-08-24T01:02:51.490Z,17.82
2022-08-24T01:05:18.197Z,17.70
2022-08-24T01:07:46.118Z,17.79
2022-08-24T01:10:19.526Z,17.64
2022-08-24T01:13:00.705Z,17.77
2022-08-24T01:15:30.763Z,17.95
2022-08-24T01:17:57.877Z,18.03
2022-08-24T01:20:25.168Z,17.96
2022-08-24T01:23:08.750Z,18.11
2022-08-24T01:25:36.474Z,18.29
2022-08-24T01:28:09.159Z,18.03
2022-08-24T01:30:36.820Z,18.07
2022-08-24T01:33:06.788Z,18.04
2022-08-24T01:35:34.985Z,18.12
2022-08-24T01:38:07.126Z,18.27
2022-08-24T01:40:38.951Z,18.15
2022-08-24T01:43:07.808Z,18.00
2022-08-24T01:45:34.738Z,17.80
2022-08-24T01:48:01.547Z,18.00
2022-08-24T01:50:28.580Z,18.15
2022-08-24T01:53:09.079Z,18.34
2022-08-24T01:55:36.724Z,17.72
2022-08-24T01:58:05.652Z,17.52
2022-08-24T02:00:33.328Z,17.63
2022-08-24T02:03:00.262Z,17.72
2022-08-24T02:05:26.962Z,17.78
2022-08-24T02:07:53.620Z,17.56
2022-08-24T02:10:20.418Z,17.66
2022-08-24T02:12:48.597Z,17.47
2022-08-24T02:15:15.221Z,17.45
2022-08-24T02:17:41.842Z,17.15
2022-08-24T02:20:09.144Z,17.12
2022-08-24T02:22:38.039Z,17.11
2022-08-24T02:25:04.988Z,16.96
2022-08-24T02:27:31.703Z,17.06
2022-08-24T02:29:58.377Z,16.93
2022-08-24T02:32:25.007Z,17.07
2022-08-24T02:34:54.759Z,17.01
2022-08-24T02:37:21.709Z,16.90
2022-08-24T02:39:48.441Z,17.07
2022-08-24T02:42:15.231Z,17.15
2022-08-24T02:44:41.884Z,17.19
2022-08-24T02:47:08.562Z,17.09
2022-08-24T02:49:35.223Z,16.97
2022-08-24T02:52:01.977Z,17.05
2022-08-24T02:54:28.791Z,17.21
2022-08-24T02:56:55.494Z,17.35
2022-08-24T02:59:22.345Z,17.31
2022-08-24T03:01:50.019Z,17.47
2022-08-24T03:04:17.366Z,17.24
2022-08-24T03:06:45.499Z,17.35
2022-08-24T03:09:12.541Z,17.43
2022-08-24T03:11:39.575Z,17.60
2022-08-24T03:14:12.181Z,17.11
2022-08-24T03:16:38.820Z,17.29
2022-08-24T03:19:05.980Z,17.41
2022-08-24T03:21:32.647Z,17.54
2022-08-24T03:23:59.495Z,17.58
2022-08-24T03:26:26.136Z,17.77
2022-08-24T03:28:53.100Z,17.75
2022-08-24T03:31:19.817Z,17.69
2022-08-24T03:33:46.675Z,17.72
2022-08-24T03:36:14.485Z,17.82
2022-08-24T03:38:41.818Z,17.61
2022-08-24T03:41:08.844Z,17.74
2022-08-24T03:43:35.559Z,17.86
2022-08-24T03:46:05.915Z,17.65
2022-08-24T03:48:32.947Z,17.54
2022-08-24T03:50:59.823Z,17.71
2022-08-24T03:53:26.476Z,17.71
2022-08-24T03:55:53.186Z,17.36
2022-08-24T03:58:19.898Z,17.37
2022-08-24T04:00:46.742Z,17.06
2022-08-24T04:03:14.640Z,17.27
2022-08-24T04:05:42.435Z,17.29
2022-08-24T04:08:09.706Z,17.27
2022-08-24T04:10:37.641Z,17.51
2022-08-24T04:13:04.786Z,17.21
2022-08-24T04:15:31.885Z,17.14
2022-08-24T04:17:58.614Z,17.23
2022-08-24T04:20:25.286Z,17.07
2022-08-24T04:22:53.496Z,17.21
2022-08-24T04:25:24.756Z,17.36
2022-08-24T04:27:52.081Z,17.43
2022-08-24T04:30:18.794Z,17.46
2022-08-24T04:32:45.410Z,17.39
2022-08-24T04:35:12.619Z,17.44
2022-08-24T04:37:39.248Z,17.28
2022-08-24T04:40:06.522Z,17.43
2022-08-24T04:42:33.434Z,17.39
2022-08-24T04:45:00.298Z,17.43
2022-08-24T04:47:26.982Z,17.58
2022-08-24T04:49:53.708Z,17.45
2022-08-24T04:52:20.427Z,17.53
2022-08-24T04:54:47.188Z,17.71
2022-08-24T04:57:17.963Z,17.64
2022-08-24T04:59:45.365Z,17.62
2022-08-24T05:02:12.100Z,17.73
2022-08-24T05:04:38.805Z,17.64
2022-08-24T05:07:06.346Z,17.57
2022-08-24T05:09:33.309Z,17.51
2022-08-24T05:12:00.072Z,17.57
2022-08-24T05:14:28.853Z,17.66
2022-08-24T05:16:56.312Z,17.70
2022-08-24T05:19:23.898Z,17.68
2022-08-24T05:21:51.263Z,17.71
2022-08-24T05:24:18.521Z,17.89
2022-08-24T05:26:45.451Z,17.90
2022-08-24T05:29:12.628Z,18.19
2022-08-24T05:31:44.020Z,17.99
2022-08-24T05:34:10.812Z,18.02
2022-08-24T05:36:39.466Z,17.96
2022-08-24T05:39:11.555Z,18.00
2022-08-24T05:41:44.268Z,18.21
2022-08-24T05:44:15.299Z,18.33
2022-08-24T05:46:41.975Z,18.52
2022-08-24T05:49:08.995Z,18.47
2022-08-24T05:51:37.050Z,18.54
2022-08-24T05:54:03.869Z,18.49
2022-08-24T05:56:32.099Z,18.70
2022-08-24T05:58:59.354Z,18.56
2022-08-24T06:01:26.904Z,18.91
2022-08-24T06:03:56.801Z,18.97
2022-08-24T06:06:24.254Z,18.85
2022-08-24T06:08:54.200Z,18.78
2022-08-24T06:11:24.756Z,18.78
2022-08-24T06:14:00.755Z,19.14
2022-08-24T06:16:28.339Z,19.14
2022-08-24T06:18:55.931Z,19.19
2022-08-24T06:21:26.026Z,19.25
2022-08-24T06:23:55.832Z,19.21
2022-08-24T06:26:23.329Z,19.16
2022-08-24T06:28:50.766Z,19.29
2022-08-24T06:31:18.612Z,19.38
2022-08-24T06:33:45.310Z,19.54
2022-08-24T06:36:11.979Z,19.53
2022-08-24T06:38:38.612Z,19.83
2022-08-24T06:41:06.060Z,19.86
2022-08-24T06:43:33.802Z,20.05
2022-08-24T06:46:00.418Z,19.95
2022-08-24T06:48:27.556Z,19.97
2022-08-24T06:50:54.525Z,20.07
2022-08-24T06:53:21.324Z,20.20
2022-08-24T06:55:57.237Z,20.38
2022-08-24T06:58:26.242Z,20.37
2022-08-24T07:00:52.919Z,20.35
2022-08-24T07:03:19.954Z,20.35
2022-08-24T07:05:53.829Z,20.57
2022-08-24T07:08:21.156Z,20.58
2022-08-24T07:10:48.295Z,20.45
2022-08-24T07:13:15.626Z,20.57
2022-08-24T07:15:43.387Z,20.99
2022-08-24T07:18:17.561Z,20.94
2022-08-24T07:20:44.349Z,21.28
2022-08-24T07:23:11.355Z,21.48
2022-08-24T07:25:42.066Z,21.36
2022-08-24T07:28:12.164Z,21.24
2022-08-24T07:30:42.619Z,21.76
2022-08-24T07:33:09.936Z,21.99
2022-08-24T07:35:38.997Z,21.75
2022-08-24T07:38:07.110Z,21.80
2022-08-24T07:40:48.982Z,22.13
2022-08-24T07:43:21.794Z,22.02
2022-08-24T07:45:49.395Z,22.03
2022-08-24T07:48:16.040Z,22.31
2022-08-24T07:50:42.869Z,22.24
2022-08-24T07:53:13.827Z,22.24
2022-08-24T07:55:46.038Z,22.03
2022-08-24T07:58:13.093Z,22.09
2022-08-24T08:00:39.727Z,22.34
2022-08-24T08:03:06.695Z,22.35
2022-08-24T08:05:38.698Z,22.52
2022-08-24T08:08:05.438Z,22.77
2022-08-24T08:10:32.327Z,22.87
2022-08-24T08:12:58.981Z,23.14
2022-08-24T08:15:25.674Z,23.11
2022-08-24T08:17:55.707Z,23.23
2022-08-24T08:20:22.891Z,23.37
2022-08-24T08:22:49.643Z,23.75
2022-08-24T08:25:16.280Z,23.66
2022-08-24T08:30:14.597Z,23.52
2022-08-24T08:32:41.233Z,23.42
2022-08-24T08:35:08.164Z,23.45
2022-08-24T08:37:37.741Z,23.34
2022-08-24T08:40:06.695Z,23.41
2022-08-24T08:42:48.117Z,23.15
2022-08-24T08:45:21.903Z,23.71
2022-08-24T08:48:24.626Z,23.58
2022-08-24T08:51:22.943Z,23.33
2022-08-24T08:53:58.215Z,23.31
2022-08-24T08:56:48.186Z,23.85
2022-08-24T08:59:54.643Z,23.66
2022-08-24T09:02:27.400Z,24.21
2022-08-24T09:05:12.612Z,24.33
2022-08-24T09:08:25.234Z,24.88
2022-08-24T09:11:11.082Z,24.99
2022-08-24T09:13:58.261Z,25.14
2022-08-24T09:16:24.946Z,25.08
2022-08-24T09:18:54.171Z,25.29
2022-08-24T09:22:03.446Z,25.15
2022-08-24T09:24:54.737Z,25.33
2022-08-24T09:27:39.709Z,24.95
2022-08-24T09:30:22.134Z,24.42
2022-08-24T09:33:15.012Z,24.64
2022-08-24T09:35:50.633Z,24.38
2022-08-24T09:38:49.734Z,24.51
2022-08-24T09:41:21.762Z,24.51
2022-08-24T09:44:03.751Z,24.32
2022-08-24T09:47:08.420Z,24.11
2022-08-24T09:49:53.806Z,24.70
2022-08-24T09:52:42.391Z,24.39
2022-08-24T09:55:41.875Z,24.17
2022-08-24T09:58:14.396Z,24.32
2022-08-24T10:01:09.815Z,24.08
2022-08-24T10:03:56.137Z,23.82
2022-08-24T10:06:57.207Z,24.06
2022-08-24T10:09:42.034Z,24.25
2022-08-24T10:12:14.591Z,24.45
2022-08-24T10:14:53.535Z,24.99
2022-08-24T10:17:38.936Z,25.00
2022-08-24T10:20:21.476Z,24.81
2022-08-24T10:23:25.880Z,24.90
2022-08-24T10:26:03.634Z,25.03
2022-08-24T10:28:44.704Z,24.93
2022-08-24T10:31:15.248Z,24.60
2022-08-24T10:34:27.359Z,24.73
2022-08-24T10:37:31.504Z,25.32
2022-08-24T10:40:10.581Z,25.37
2022-08-24T10:42:52.151Z,25.05
2022-08-24T10:45:56.200Z,25.11
2022-08-24T10:48:33.010Z,25.23
2022-08-24T10:51:37.978Z,25.52
2022-08-24T10:54:05.471Z,25.12
2022-08-24T10:56:32.067Z,24.78
2022-08-24T10:59:16.598Z,24.93
2022-08-24T11:01:59.759Z,25.07
2022-08-24T11:04:29.538Z,25.07
2022-08-24T11:07:20.594Z,25.27
2022-08-24T11:09:57.146Z,25.26
2022-08-24T11:12:36.606Z,25.72
2022-08-24T11:15:24.543Z,25.79
2022-08-24T11:17:58.215Z,25.82
2022-08-24T11:20:33.695Z,25.61
2022-08-24T11:23:03.910Z,25.70
2022-08-24T11:25:33.925Z,25.66
2022-08-24T11:28:17.580Z,25.55
2022-08-24T11:30:44.279Z,25.76
2022-08-24T11:33:46.020Z,25.52
2022-08-24T11:36:21.950Z,25.43
2022-08-24T11:38:50.242Z,25.68
2022-08-24T11:41:26.264Z,25.71
2022-08-24T11:44:03.511Z,25.32
2022-08-24T11:47:19.728Z,25.57
2022-08-24T11:50:01.731Z,25.39
2022-08-24T11:53:00.264Z,25.82
2022-08-24T11:56:00.131Z,25.48
2022-08-24T11:58:49.140Z,24.93
2022-08-24T12:01:44.536Z,25.20
2022-08-24T12:04:45.561Z,25.55
2022-08-24T12:07:26.735Z,25.68
2022-08-24T12:10:21.203Z,24.98
2022-08-24T12:13:24.207Z,24.68
2022-08-24T12:16:06.686Z,24.60
2022-08-24T12:18:50.457Z,24.53
2022-08-24T12:21:22.443Z,24.36
2022-08-24T12:23:53.780Z,24.39
2022-08-24T12:26:32.472Z,24.71
2022-08-24T12:29:07.875Z,24.38
2022-08-24T12:31:49.921Z,24.23
2022-08-24T12:34:44.106Z,24.42
2022-08-24T12:37:25.738Z,24.53
2022-08-24T12:40:39.964Z,24.94
2022-08-24T12:43:12.952Z,24.82
2022-08-24T12:45:39.724Z,24.46
2022-08-24T12:48:21.886Z,24.79
2022-08-24T12:51:07.391Z,25.02
2022-08-24T12:53:57.439Z,24.89
2022-08-24T12:56:43.026Z,24.64
2022-08-24T12:59:30.566Z,24.45
2022-08-24T13:02:27.771Z,24.48
2022-08-24T13:05:04.575Z,24.30
2022-08-24T13:07:40.579Z,23.86
2022-08-24T13:10:40.852Z,23.11
2022-08-24T13:13:15.376Z,23.22
2022-08-24T13:15:44.833Z,23.05
2022-08-24T13:18:14.533Z,22.97
2022-08-24T13:20:44.348Z,22.71
2022-08-24T13:23:11.113Z,22.64
2022-08-24T13:26:18.035Z,22.68
2022-08-24T13:28:48.916Z,22.42
2022-08-24T13:31:34.035Z,22.45
2022-08-24T13:34:06.474Z,22.48
2022-08-24T13:36:58.993Z,22.24
2022-08-24T13:39:34.868Z,22.13
2022-08-24T13:42:13.442Z,22.09
2022-08-24T13:44:43.025Z,21.88
2022-08-24T13:47:22.903Z,22.16
2022-08-24T13:49:55.693Z,22.50
2022-08-24T13:52:56.719Z,22.90
2022-08-24T13:55:26.051Z,23.16
2022-08-24T13:58:11.812Z,23.44
2022-08-24T14:00:51.586Z,23.72
2022-08-24T14:03:21.228Z,23.71
2022-08-24T14:05:47.906Z,23.51
2022-08-24T14:08:37.012Z,23.25
2022-08-24T14:11:21.201Z,23.59
2022-08-24T14:14:06.545Z,22.82
2022-08-24T14:16:54.457Z,22.55
2022-08-24T14:19:30.523Z,22.35
2022-08-24T14:22:23.028Z,22.39
2022-08-24T14:25:11.111Z,22.49
2022-08-24T14:27:39.490Z,22.58
2022-08-24T14:30:18.300Z,22.45
2022-08-24T14:33:05.690Z,22.67
2022-08-24T14:35:42.871Z,22.61
2022-08-24T14:38:20.468Z,22.84
2022-08-24T14:41:08.886Z,22.64
2022-08-24T14:44:02.643Z,22.56
2022-08-24T14:46:47.590Z,22.97
2022-08-24T14:49:38.033Z,22.76
2022-08-24T14:52:17.988Z,22.47
2022-08-24T14:55:09.414Z,22.31
2022-08-24T14:57:38.937Z,22.29
2022-08-24T15:00:12.332Z,22.27
2022-08-24T15:02:50.840Z,22.21
2022-08-24T15:05:24.095Z,22.24
2022-08-24T15:08:31.107Z,22.42
2022-08-24T15:11:13.943Z,22.44
2022-08-24T15:13:56.610Z,23.13
2022-08-24T15:16:35.528Z,23.56
2022-08-24T15:19:16.117Z,23.51
2022-08-24T15:21:56.174Z,23.41
2022-08-24T15:24:34.483Z,23.27
2022-08-24T15:27:18.340Z,23.35
2022-08-24T15:29:58.374Z,23.69
2022-08-24T15:32:41.048Z,23.63
2022-08-24T15:35:07.694Z,23.42
2022-08-24T15:37:37.440Z,23.31
2022-08-24T15:40:16.090Z,23.52
2022-08-24T15:42:43.440Z,23.41
2022-08-24T15:45:11.083Z,23.48
2022-08-24T15:47:40.613Z,23.25
2022-08-24T15:50:35.182Z,23.44
2022-08-24T15:53:32.920Z,23.04
2022-08-24T15:56:31.767Z,23.06
2022-08-24T15:59:13.258Z,23.20
2022-08-24T16:01:40.716Z,23.11
2022-08-24T16:04:14.114Z,23.23
2022-08-24T16:06:46.899Z,22.96
2022-08-24T16:09:22.639Z,23.18
2022-08-24T16:12:02.719Z,23.51
2022-08-24T16:14:49.012Z,23.88
2022-08-24T16:17:21.592Z,23.69
2022-08-24T16:19:55.213Z,23.66
2022-08-24T16:22:54.368Z,23.69
2022-08-24T16:25:33.229Z,23.61
2022-08-24T16:28:10.566Z,23.54
2022-08-24T16:30:49.248Z,23.80
2022-08-24T16:33:31.374Z,23.92
2022-08-24T16:35:59.519Z,23.77
2022-08-24T16:38:27.606Z,23.58
2022-08-24T16:40:55.605Z,23.54
2022-08-24T16:43:22.211Z,23.46
2022-08-24T16:45:49.032Z,23.40
2022-08-24T16:48:15.974Z,23.12
2022-08-24T16:50:42.692Z,23.15
2022-08-24T16:53:09.339Z,23.37
2022-08-24T16:55:36.050Z,23.14
2022-08-24T16:58:03.024Z,23.08
2022-08-24T17:00:29.756Z,23.05
2022-08-24T17:02:56.375Z,22.96
2022-08-24T17:05:23.395Z,22.99
2022-08-24T17:07:50.361Z,23.04
2022-08-24T17:10:19.474Z,23.37
2022-08-24T17:12:48.969Z,23.04
2022-08-24T17:15:15.634Z,23.04
2022-08-24T17:17:54.003Z,22.99
2022-08-24T17:20:20.791Z,22.92
2022-08-24T17:22:47.417Z,23.01
2022-08-24T17:25:14.101Z,23.11
2022-08-24T17:27:40.992Z,22.77
2022-08-24T17:30:10.802Z,22.59
2022-08-24T17:32:37.451Z,22.40
2022-08-24T17:35:04.595Z,22.66
2022-08-24T17:37:31.340Z,22.59
2022-08-24T17:39:59.510Z,22.48
2022-08-24T17:42:49.619Z,22.34
2022-08-24T17:45:13.600Z,22.09
2022-08-24T17:47:41.565Z,22.14
2022-08-24T17:50:08.746Z,22.31
2022-08-24T17:52:35.501Z,22.15
2022-08-24T17:55:02.145Z,22.02
2022-08-24T17:57:28.801Z,22.07
2022-08-24T17:59:55.538Z,22.06
2022-08-24T18:02:22.273Z,21.92
2022-08-24T18:04:50.194Z,22.04
2022-08-24T18:07:35.975Z,22.00
2022-08-24T18:10:09.260Z,21.62
2022-08-24T18:12:35.971Z,21.70
2022-08-24T18:15:05.095Z,21.84
2022-08-24T18:17:40.284Z,21.78
2022-08-24T18:20:08.757Z,21.75
2022-08-24T18:22:35.716Z,21.80
2022-08-24T18:25:02.326Z,21.83
2022-08-24T18:27:32.936Z,21.77
2022-08-24T18:30:03.243Z,21.83
2022-08-24T18:32:31.357Z,21.93
2022-08-24T18:34:58.957Z,21.99
2022-08-24T18:37:25.710Z,22.00
2022-08-24T18:39:52.414Z,21.98
2022-08-24T18:42:19.195Z,21.64
2022-08-24T18:44:46.037Z,21.74
2022-08-24T18:47:12.698Z,21.66
2022-08-24T18:49:39.549Z,21.65
2022-08-24T18:52:09.569Z,21.70
2022-08-24T18:54:40.206Z,21.59
2022-08-24T18:57:06.886Z,21.58
2022-08-24T18:59:34.142Z,21.49
2022-08-24T19:02:10.313Z,21.53
2022-08-24T19:04:49.539Z,21.51
2022-08-24T19:07:16.207Z,21.33
2022-08-24T19:09:42.970Z,21.33
2022-08-24T19:12:09.889Z,21.04
2022-08-24T19:14:37.530Z,20.69
2022-08-24T19:17:05.082Z,20.85
2022-08-24T19:19:31.759Z,20.69
2022-08-24T19:21:59.293Z,20.42
2022-08-24T19:24:28.483Z,20.44
2022-08-24T19:26:55.120Z,20.39
2022-08-24T19:29:44.884Z,20.58
2022-08-24T19:32:13.933Z,20.54
2022-08-24T19:34:50.494Z,20.50
2022-08-24T19:37:17.391Z,20.52
2022-08-24T19:39:44.338Z,20.52
2022-08-24T19:42:13.568Z,20.67
2022-08-24T19:44:40.517Z,20.81
2022-08-24T19:47:14.082Z,20.86
2022-08-24T19:49:40.718Z,20.71
2022-08-24T19:52:07.650Z,20.93
2022-08-24T19:54:41.503Z,20.84
2022-08-24T19:57:29.650Z,20.69
2022-08-24T20:00:06.974Z,20.50
2022-08-24T20:02:33.736Z,20.54
2022-08-24T20:05:00.389Z,20.35
2022-08-24T20:07:27.020Z,20.31
2022-08-24T20:09:53.662Z,20.36
2022-08-24T20:12:20.364Z,20.36
2022-08-24T20:14:46.975Z,20.42
2022-08-24T20:17:13.597Z,20.41
2022-08-24T20:19:40.303Z,20.22
2022-08-24T20:22:13.561Z,20.34
2022-08-24T20:24:40.501Z,20.42
2022-08-24T20:27:07.155Z,20.39
2022-08-24T20:29:33.943Z,20.47
2022-08-24T20:32:00.665Z,20.36
2022-08-24T20:34:27.360Z,20.26
2022-08-24T20:36:54.037Z,20.30
2022-08-24T20:39:25.590Z,20.45
2022-08-24T20:41:52.580Z,20.45
2022-08-24T20:44:19.491Z,20.26
2022-08-24T20:46:46.838Z,20.36
2022-08-24T20:49:16.983Z,20.42
2022-08-24T20:51:46.091Z,20.28
2022-08-24T20:54:13.557Z,20.33
2022-08-24T20:56:40.255Z,20.27
2022-08-24T20:59:09.346Z,20.18
2022-08-24T21:01:37.139Z,20.17
2022-08-24T21:04:05.450Z,20.23
2022-08-24T21:06:33.469Z,20.03
2022-08-24T21:09:00.326Z,20.02
2022-08-24T21:11:27.005Z,19.95
2022-08-24T21:13:53.638Z,19.84
2022-08-24T21:16:20.371Z,19.77
2022-08-24T21:18:47.117Z,19.93
2022-08-24T21:21:14.161Z,19.91
2022-08-24T21:23:41.041Z,19.88
2022-08-24T21:26:11.972Z,20.02
2022-08-24T21:28:41.749Z,20.01
2022-08-24T21:31:09.080Z,20.00
2022-08-24T21:33:35.772Z,20.12
2022-08-24T21:36:02.585Z,19.98
2022-08-24T21:38:29.801Z,20.07
2022-08-24T21:40:56.430Z,19.88
2022-08-24T21:43:23.061Z,20.04
2022-08-24T21:45:51.147Z,20.02
2022-08-24T21:48:18.710Z,19.79
2022-08-24T21:50:47.516Z,19.89
2022-08-24T21:53:14.245Z,19.74
2022-08-24T21:55:42.339Z,19.75
2022-08-24T21:58:11.237Z,20.26
2022-08-24T22:00:38.804Z,19.77
2022-08-24T22:03:06.178Z,19.57
2022-08-24T22:05:32.897Z,19.57
2022-08-24T22:07:59.537Z,19.57
2022-08-24T22:10:26.843Z,19.61
2022-08-24T22:12:54.225Z,19.57
2022-08-24T22:15:23.268Z,19.58
2022-08-24T22:17:51.923Z,19.72
2022-08-24T22:20:23.220Z,19.89
2022-08-24T22:22:51.096Z,19.84
2022-08-24T22:25:18.123Z,20.00
2022-08-24T22:27:46.727Z,20.08
2022-08-24T22:30:16.872Z,19.98
2022-08-24T22:32:44.566Z,20.04
2022-08-24T22:35:11.659Z,20.06
2022-08-24T22:37:38.397Z,20.10
2022-08-24T22:40:06.095Z,20.11
2022-08-24T22:42:39.893Z,19.84
2022-08-24T22:45:07.550Z,19.83
2022-08-24T22:47:34.197Z,19.83
2022-08-24T22:50:00.845Z,19.82
2022-08-24T22:52:27.556Z,20.00
2022-08-24T22:54:56.648Z,19.94
2022-08-24T22:57:24.304Z,19.83
2022-08-24T22:59:53.530Z,19.68
2022-08-24T23:02:20.595Z,19.72
2022-08-24T23:04:50.390Z,19.71
2022-08-24T23:07:17.400Z,19.73
2022-08-24T23:09:45.561Z,19.52
2022-08-24T23:12:16.539Z,19.53
2022-08-24T23:14:43.639Z,19.36
2022-08-24T23:17:10.767Z,19.42
2022-08-24T23:19:38.009Z,19.47
2022-08-24T23:22:06.305Z,19.55
2022-08-24T23:24:33.871Z,19.62
2022-08-24T23:27:02.421Z,19.76
2022-08-24T23:29:29.201Z,19.44
2022-08-24T23:31:55.813Z,19.46
2022-08-24T23:34:22.729Z,19.38
2022-08-24T23:36:50.470Z,19.38
2022-08-24T23:39:18.084Z,19.45
2022-08-24T23:41:46.477Z,19.54
2022-08-24T23:44:18.893Z,19.53
2022-08-24T23:46:46.795Z,19.51
2022-08-24T23:49:16.071Z,19.63
2022-08-24T23:51:43.365Z,19.49
2022-08-24T23:54:10.906Z,19.33
2022-08-24T23:56:41.867Z,19.33
2022-08-24T23:59:11.656Z,19.24
